sensor_id;sensor_type;location;lat;lon;timestamp;P1;durP1;ratioP1;P2;durP2;ratioP2
61358;SDS011;47228;46.762;23.598;2023-06-01T00:01:43;23.30;;;11.00;;
61358;SDS011;47228;46.762;23.598;2023-06-01T00:04:11;19.80;;;11.40;;
61358;SDS011;47228;46.762;23.598;2023-06-01T00:06:40;20.40;;;11.30;;
61358;SDS011;47228;46.762;23.598;2023-06-01T00:09:08;24.10;;;12.10;;
61358;SDS011;47228;46.762;23.598;2023-06-01T00:11:37;21.60;;;11.60;;
61358;SDS011;47228;46.762;23.598;2023-06-01T00:14:05;20.50;;;11.50;;
61358;SDS011;47228;46.762;23.598;2023-06-01T00:16:33;19.40;;;11.20;;
61358;SDS011;47228;46.762;23.598;2023-06-01T00:19:01;24.50;;;11.20;;
61358;SDS011;47228;46.762;23.598;2023-06-01T00:21:30;19.60;;;11.60;;
61358;SDS011;47228;46.762;23.598;2023-06-01T00:24:01;21.60;;;11.40;;
61358;SDS011;47228;46.762;23.598;2023-06-01T00:26:29;21.60;;;11.30;;
61358;SDS011;47228;46.762;23.598;2023-06-01T00:28:59;19.00;;;10.80;;
61358;SDS011;47228;46.762;23.598;2023-06-01T00:31:27;20.40;;;11.20;;
61358;SDS011;47228;46.762;23.598;2023-06-01T00:33:55;22.00;;;12.30;;
61358;SDS011;47228;46.762;23.598;2023-06-01T00:36:23;20.80;;;11.50;;
61358;SDS011;47228;46.762;23.598;2023-06-01T00:38:51;19.80;;;10.80;;
61358;SDS011;47228;46.762;23.598;2023-06-01T00:41:19;25.20;;;11.80;;
61358;SDS011;47228;46.762;23.598;2023-06-01T00:43:47;19.80;;;11.70;;
61358;SDS011;47228;46.762;23.598;2023-06-01T00:46:15;24.30;;;11.80;;
61358;SDS011;47228;46.762;23.598;2023-06-01T00:48:43;20.80;;;11.60;;
61358;SDS011;47228;46.762;23.598;2023-06-01T00:51:11;22.60;;;12.20;;
61358;SDS011;47228;46.762;23.598;2023-06-01T00:53:42;22.30;;;11.50;;
61358;SDS011;47228;46.762;23.598;2023-06-01T00:56:11;21.20;;;12.20;;
61358;SDS011;47228;46.762;23.598;2023-06-01T00:58:40;21.10;;;11.00;;
61358;SDS011;47228;46.762;23.598;2023-06-01T01:01:08;20.40;;;11.70;;
61358;SDS011;47228;46.762;23.598;2023-06-01T01:03:47;21.50;;;11.80;;
61358;SDS011;47228;46.762;23.598;2023-06-01T01:06:27;24.50;;;12.40;;
61358;SDS011;47228;46.762;23.598;2023-06-01T01:09:13;24.20;;;12.40;;
61358;SDS011;47228;46.762;23.598;2023-06-01T01:11:52;20.80;;;11.30;;
61358;SDS011;47228;46.762;23.598;2023-06-01T01:14:30;22.70;;;12.00;;
61358;SDS011;47228;46.762;23.598;2023-06-01T01:17:10;23.00;;;11.20;;
61358;SDS011;47228;46.762;23.598;2023-06-01T01:19:58;24.10;;;12.50;;
61358;SDS011;47228;46.762;23.598;2023-06-01T01:25:38;21.80;;;12.00;;
61358;SDS011;47228;46.762;23.598;2023-06-01T01:29:00;20.20;;;11.80;;
61358;SDS011;47228;46.762;23.598;2023-06-01T01:31:31;22.40;;;11.70;;
61358;SDS011;47228;46.762;23.598;2023-06-01T01:34:02;22.60;;;12.00;;
61358;SDS011;47228;46.762;23.598;2023-06-01T01:36:30;24.80;;;12.80;;
61358;SDS011;47228;46.762;23.598;2023-06-01T01:38:59;22.10;;;11.80;;
61358;SDS011;47228;46.762;23.598;2023-06-01T01:41:27;24.10;;;12.30;;
61358;SDS011;47228;46.762;23.598;2023-06-01T01:43:55;24.50;;;13.30;;
61358;SDS011;47228;46.762;23.598;2023-06-01T01:46:27;23.20;;;12.50;;
61358;SDS011;47228;46.762;23.598;2023-06-01T01:54:25;29.60;;;14.90;;
61358;SDS011;47228;46.762;23.598;2023-06-01T01:56:57;22.90;;;12.70;;
61358;SDS011;47228;46.762;23.598;2023-06-01T01:59:25;21.50;;;12.70;;
61358;SDS011;47228;46.762;23.598;2023-06-01T02:01:54;26.30;;;12.50;;
61358;SDS011;47228;46.762;23.598;2023-06-01T02:04:23;22.40;;;12.40;;
61358;SDS011;47228;46.762;23.598;2023-06-01T02:06:52;23.40;;;12.00;;
61358;SDS011;47228;46.762;23.598;2023-06-01T02:09:19;20.80;;;12.40;;
61358;SDS011;47228;46.762;23.598;2023-06-01T02:11:48;22.70;;;12.00;;
61358;SDS011;47228;46.762;23.598;2023-06-01T02:14:16;20.60;;;12.20;;
61358;SDS011;47228;46.762;23.598;2023-06-01T02:16:44;23.20;;;11.70;;
61358;SDS011;47228;46.762;23.598;2023-06-01T02:19:12;24.80;;;11.70;;
61358;SDS011;47228;46.762;23.598;2023-06-01T02:21:43;22.80;;;11.40;;
61358;SDS011;47228;46.762;23.598;2023-06-01T02:24:11;25.30;;;12.60;;
61358;SDS011;47228;46.762;23.598;2023-06-01T02:26:40;23.40;;;12.20;;
61358;SDS011;47228;46.762;23.598;2023-06-01T02:29:08;21.20;;;11.80;;
61358;SDS011;47228;46.762;23.598;2023-06-01T02:31:36;19.30;;;11.20;;
61358;SDS011;47228;46.762;23.598;2023-06-01T02:34:04;19.70;;;11.50;;
61358;SDS011;47228;46.762;23.598;2023-06-01T02:36:31;20.70;;;11.80;;
61358;SDS011;47228;46.762;23.598;2023-06-01T02:38:59;30.60;;;11.90;;
61358;SDS011;47228;46.762;23.598;2023-06-01T02:41:27;19.50;;;11.60;;
61358;SDS011;47228;46.762;23.598;2023-06-01T02:43:55;23.10;;;11.60;;
61358;SDS011;47228;46.762;23.598;2023-06-01T02:46:24;26.70;;;11.10;;
61358;SDS011;47228;46.762;23.598;2023-06-01T02:48:51;23.40;;;11.20;;
61358;SDS011;47228;46.762;23.598;2023-06-01T02:51:20;28.30;;;12.40;;
61358;SDS011;47228;46.762;23.598;2023-06-01T02:53:48;20.80;;;11.70;;
61358;SDS011;47228;46.762;23.598;2023-06-01T02:56:16;19.00;;;10.50;;
61358;SDS011;47228;46.762;23.598;2023-06-01T02:58:44;19.40;;;11.40;;
61358;SDS011;47228;46.762;23.598;2023-06-01T03:01:13;21.10;;;10.90;;
61358;SDS011;47228;46.762;23.598;2023-06-01T03:03:41;23.30;;;10.50;;
61358;SDS011;47228;46.762;23.598;2023-06-01T03:06:10;19.50;;;10.80;;
61358;SDS011;47228;46.762;23.598;2023-06-01T03:08:40;19.10;;;10.80;;
61358;SDS011;47228;46.762;23.598;2023-06-01T03:11:08;17.90;;;9.60;;
61358;SDS011;47228;46.762;23.598;2023-06-01T03:13:36;19.10;;;10.60;;
61358;SDS011;47228;46.762;23.598;2023-06-01T03:16:04;20.40;;;10.80;;
61358;SDS011;47228;46.762;23.598;2023-06-01T03:18:32;25.00;;;11.30;;
61358;SDS011;47228;46.762;23.598;2023-06-01T03:21:03;22.20;;;10.70;;
61358;SDS011;47228;46.762;23.598;2023-06-01T03:23:31;19.00;;;10.30;;
61358;SDS011;47228;46.762;23.598;2023-06-01T03:25:59;22.90;;;10.30;;
61358;SDS011;47228;46.762;23.598;2023-06-01T03:28:27;18.40;;;10.40;;
61358;SDS011;47228;46.762;23.598;2023-06-01T03:30:55;17.40;;;10.10;;
61358;SDS011;47228;46.762;23.598;2023-06-01T03:33:23;18.30;;;10.30;;
61358;SDS011;47228;46.762;23.598;2023-06-01T03:35:51;18.60;;;10.50;;
61358;SDS011;47228;46.762;23.598;2023-06-01T03:38:19;17.00;;;9.30;;
61358;SDS011;47228;46.762;23.598;2023-06-01T03:40:47;17.70;;;9.80;;
61358;SDS011;47228;46.762;23.598;2023-06-01T03:43:15;18.00;;;10.10;;
61358;SDS011;47228;46.762;23.598;2023-06-01T03:45:43;22.10;;;10.70;;
61358;SDS011;47228;46.762;23.598;2023-06-01T03:48:11;21.50;;;11.00;;
61358;SDS011;47228;46.762;23.598;2023-06-01T03:50:39;21.70;;;10.90;;
61358;SDS011;47228;46.762;23.598;2023-06-01T03:53:07;17.70;;;9.60;;
61358;SDS011;47228;46.762;23.598;2023-06-01T03:55:35;20.60;;;10.80;;
61358;SDS011;47228;46.762;23.598;2023-06-01T03:58:03;18.30;;;10.50;;
61358;SDS011;47228;46.762;23.598;2023-06-01T04:00:32;20.10;;;10.80;;
61358;SDS011;47228;46.762;23.598;2023-06-01T04:03:00;19.90;;;10.30;;
61358;SDS011;47228;46.762;23.598;2023-06-01T04:05:32;18.30;;;10.10;;
61358;SDS011;47228;46.762;23.598;2023-06-01T04:08:00;17.80;;;10.30;;
61358;SDS011;47228;46.762;23.598;2023-06-01T04:10:28;21.40;;;10.40;;
61358;SDS011;47228;46.762;23.598;2023-06-01T04:12:56;23.80;;;10.60;;
61358;SDS011;47228;46.762;23.598;2023-06-01T04:15:24;19.10;;;9.80;;
61358;SDS011;47228;46.762;23.598;2023-06-01T04:17:52;20.30;;;9.80;;
61358;SDS011;47228;46.762;23.598;2023-06-01T04:20:20;20.30;;;10.40;;
61358;SDS011;47228;46.762;23.598;2023-06-01T04:22:48;16.50;;;9.20;;
61358;SDS011;47228;46.762;23.598;2023-06-01T04:25:15;17.10;;;9.70;;
61358;SDS011;47228;46.762;23.598;2023-06-01T04:27:46;21.10;;;9.20;;
61358;SDS011;47228;46.762;23.598;2023-06-01T04:30:16;17.80;;;9.00;;
61358;SDS011;47228;46.762;23.598;2023-06-01T04:32:44;16.60;;;9.30;;
61358;SDS011;47228;46.762;23.598;2023-06-01T04:35:16;20.60;;;9.60;;
61358;SDS011;47228;46.762;23.598;2023-06-01T04:37:44;19.80;;;9.50;;
61358;SDS011;47228;46.762;23.598;2023-06-01T04:40:12;21.60;;;10.00;;
61358;SDS011;47228;46.762;23.598;2023-06-01T04:42:42;18.90;;;10.60;;
61358;SDS011;47228;46.762;23.598;2023-06-01T04:45:17;19.20;;;10.00;;
61358;SDS011;47228;46.762;23.598;2023-06-01T04:47:46;18.50;;;9.80;;
61358;SDS011;47228;46.762;23.598;2023-06-01T04:50:15;27.00;;;9.90;;
61358;SDS011;47228;46.762;23.598;2023-06-01T04:52:43;19.30;;;9.20;;
61358;SDS011;47228;46.762;23.598;2023-06-01T04:55:12;17.20;;;8.70;;
61358;SDS011;47228;46.762;23.598;2023-06-01T04:57:44;18.40;;;9.80;;
61358;SDS011;47228;46.762;23.598;2023-06-01T05:00:12;19.60;;;9.50;;
61358;SDS011;47228;46.762;23.598;2023-06-01T05:02:42;19.90;;;10.00;;
61358;SDS011;47228;46.762;23.598;2023-06-01T05:05:12;18.70;;;9.90;;
61358;SDS011;47228;46.762;23.598;2023-06-01T05:07:40;18.90;;;9.70;;
61358;SDS011;47228;46.762;23.598;2023-06-01T05:10:10;17.10;;;9.70;;
61358;SDS011;47228;46.762;23.598;2023-06-01T05:12:39;15.60;;;8.80;;
61358;SDS011;47228;46.762;23.598;2023-06-01T05:15:08;21.90;;;9.70;;
61358;SDS011;47228;46.762;23.598;2023-06-01T05:17:37;22.00;;;9.60;;
61358;SDS011;47228;46.762;23.598;2023-06-01T05:20:07;18.30;;;9.10;;
61358;SDS011;47228;46.762;23.598;2023-06-01T05:22:37;20.20;;;10.70;;
61358;SDS011;47228;46.762;23.598;2023-06-01T05:25:05;18.00;;;9.50;;
61358;SDS011;47228;46.762;23.598;2023-06-01T05:27:33;19.80;;;9.90;;
61358;SDS011;47228;46.762;23.598;2023-06-01T05:30:02;18.40;;;9.70;;
61358;SDS011;47228;46.762;23.598;2023-06-01T05:32:30;20.30;;;10.40;;
61358;SDS011;47228;46.762;23.598;2023-06-01T05:34:58;19.10;;;10.50;;
61358;SDS011;47228;46.762;23.598;2023-06-01T05:37:26;20.00;;;8.90;;
61358;SDS011;47228;46.762;23.598;2023-06-01T05:39:54;19.40;;;9.10;;
61358;SDS011;47228;46.762;23.598;2023-06-01T05:42:22;24.00;;;9.70;;
61358;SDS011;47228;46.762;23.598;2023-06-01T05:44:49;16.90;;;9.40;;
61358;SDS011;47228;46.762;23.598;2023-06-01T05:47:17;20.50;;;9.70;;
61358;SDS011;47228;46.762;23.598;2023-06-01T05:49:45;20.10;;;9.40;;
61358;SDS011;47228;46.762;23.598;2023-06-01T05:52:13;21.60;;;9.80;;
61358;SDS011;47228;46.762;23.598;2023-06-01T05:54:42;20.10;;;10.50;;
61358;SDS011;47228;46.762;23.598;2023-06-01T05:57:10;25.90;;;10.00;;
61358;SDS011;47228;46.762;23.598;2023-06-01T05:59:38;19.60;;;10.10;;
61358;SDS011;47228;46.762;23.598;2023-06-01T06:02:06;22.90;;;10.90;;
61358;SDS011;47228;46.762;23.598;2023-06-01T06:04:34;19.90;;;9.80;;
61358;SDS011;47228;46.762;23.598;2023-06-01T06:07:02;16.60;;;10.00;;
61358;SDS011;47228;46.762;23.598;2023-06-01T06:09:30;22.40;;;9.90;;
61358;SDS011;47228;46.762;23.598;2023-06-01T06:11:58;22.00;;;9.50;;
61358;SDS011;47228;46.762;23.598;2023-06-01T06:14:25;18.30;;;9.40;;
61358;SDS011;47228;46.762;23.598;2023-06-01T06:16:54;19.90;;;10.10;;
61358;SDS011;47228;46.762;23.598;2023-06-01T06:19:22;19.00;;;10.20;;
61358;SDS011;47228;46.762;23.598;2023-06-01T06:21:50;20.30;;;10.30;;
61358;SDS011;47228;46.762;23.598;2023-06-01T06:24:18;21.50;;;10.30;;
61358;SDS011;47228;46.762;23.598;2023-06-01T06:26:46;16.90;;;9.20;;
61358;SDS011;47228;46.762;23.598;2023-06-01T06:29:14;21.60;;;9.80;;
61358;SDS011;47228;46.762;23.598;2023-06-01T06:31:42;23.30;;;10.40;;
61358;SDS011;47228;46.762;23.598;2023-06-01T06:34:13;20.60;;;10.20;;
61358;SDS011;47228;46.762;23.598;2023-06-01T06:36:44;20.10;;;9.90;;
61358;SDS011;47228;46.762;23.598;2023-06-01T06:39:13;24.80;;;10.80;;
61358;SDS011;47228;46.762;23.598;2023-06-01T06:41:41;23.20;;;10.70;;
61358;SDS011;47228;46.762;23.598;2023-06-01T06:44:09;21.40;;;10.30;;
61358;SDS011;47228;46.762;23.598;2023-06-01T06:46:40;19.30;;;10.30;;
61358;SDS011;47228;46.762;23.598;2023-06-01T06:49:08;18.50;;;10.10;;
61358;SDS011;47228;46.762;23.598;2023-06-01T06:51:37;24.10;;;11.10;;
61358;SDS011;47228;46.762;23.598;2023-06-01T06:54:05;19.30;;;10.70;;
61358;SDS011;47228;46.762;23.598;2023-06-01T06:56:34;20.10;;;10.90;;
61358;SDS011;47228;46.762;23.598;2023-06-01T06:59:02;19.10;;;10.70;;
61358;SDS011;47228;46.762;23.598;2023-06-01T07:01:35;23.10;;;12.60;;
61358;SDS011;47228;46.762;23.598;2023-06-01T07:04:07;19.30;;;11.20;;
61358;SDS011;47228;46.762;23.598;2023-06-01T07:06:38;24.50;;;11.40;;
61358;SDS011;47228;46.762;23.598;2023-06-01T07:09:06;21.10;;;11.10;;
61358;SDS011;47228;46.762;23.598;2023-06-01T07:11:36;24.20;;;11.60;;
61358;SDS011;47228;46.762;23.598;2023-06-01T07:14:04;19.40;;;11.20;;
61358;SDS011;47228;46.762;23.598;2023-06-01T07:16:32;22.20;;;11.40;;
61358;SDS011;47228;46.762;23.598;2023-06-01T07:19:00;20.00;;;11.50;;
61358;SDS011;47228;46.762;23.598;2023-06-01T07:21:28;22.20;;;11.60;;
61358;SDS011;47228;46.762;23.598;2023-06-01T07:23:56;21.90;;;11.30;;
61358;SDS011;47228;46.762;23.598;2023-06-01T07:26:24;21.40;;;12.20;;
61358;SDS011;47228;46.762;23.598;2023-06-01T07:28:55;21.70;;;11.50;;
61358;SDS011;47228;46.762;23.598;2023-06-01T07:31:25;19.80;;;11.60;;
61358;SDS011;47228;46.762;23.598;2023-06-01T07:33:55;21.60;;;11.90;;
61358;SDS011;47228;46.762;23.598;2023-06-01T07:36:23;19.60;;;11.60;;
61358;SDS011;47228;46.762;23.598;2023-06-01T07:38:51;24.40;;;11.50;;
61358;SDS011;47228;46.762;23.598;2023-06-01T07:41:19;20.10;;;12.00;;
61358;SDS011;47228;46.762;23.598;2023-06-01T07:43:47;22.60;;;12.30;;
61358;SDS011;47228;46.762;23.598;2023-06-01T07:46:15;24.80;;;11.60;;
61358;SDS011;47228;46.762;23.598;2023-06-01T07:48:43;22.50;;;10.60;;
61358;SDS011;47228;46.762;23.598;2023-06-01T07:51:11;21.30;;;11.30;;
61358;SDS011;47228;46.762;23.598;2023-06-01T07:53:39;21.80;;;10.40;;
61358;SDS011;47228;46.762;23.598;2023-06-01T07:56:07;28.10;;;11.60;;
61358;SDS011;47228;46.762;23.598;2023-06-01T07:58:35;18.50;;;10.60;;
61358;SDS011;47228;46.762;23.598;2023-06-01T08:01:05;19.40;;;10.50;;
61358;SDS011;47228;46.762;23.598;2023-06-01T08:03:33;18.90;;;11.20;;
61358;SDS011;47228;46.762;23.598;2023-06-01T08:06:01;23.10;;;10.90;;
61358;SDS011;47228;46.762;23.598;2023-06-01T08:08:33;24.10;;;11.30;;
61358;SDS011;47228;46.762;23.598;2023-06-01T08:11:01;16.20;;;9.80;;
61358;SDS011;47228;46.762;23.598;2023-06-01T08:13:29;17.50;;;10.30;;
61358;SDS011;47228;46.762;23.598;2023-06-01T08:15:59;18.40;;;10.80;;
61358;SDS011;47228;46.762;23.598;2023-06-01T08:18:28;21.80;;;10.30;;
61358;SDS011;47228;46.762;23.598;2023-06-01T08:20:56;20.00;;;11.00;;
61358;SDS011;47228;46.762;23.598;2023-06-01T08:23:24;19.00;;;10.70;;
61358;SDS011;47228;46.762;23.598;2023-06-01T08:25:52;21.80;;;10.40;;
61358;SDS011;47228;46.762;23.598;2023-06-01T08:28:20;20.10;;;10.70;;
61358;SDS011;47228;46.762;23.598;2023-06-01T08:30:49;19.80;;;11.20;;
61358;SDS011;47228;46.762;23.598;2023-06-01T08:33:17;16.80;;;9.80;;
61358;SDS011;47228;46.762;23.598;2023-06-01T08:35:45;20.60;;;10.60;;
61358;SDS011;47228;46.762;23.598;2023-06-01T08:38:12;16.30;;;9.20;;
61358;SDS011;47228;46.762;23.598;2023-06-01T08:40:40;18.50;;;9.70;;
61358;SDS011;47228;46.762;23.598;2023-06-01T08:45:43;19.80;;;9.20;;
61358;SDS011;47228;46.762;23.598;2023-06-01T08:48:14;18.70;;;9.00;;
61358;SDS011;47228;46.762;23.598;2023-06-01T08:50:48;16.50;;;8.60;;
61358;SDS011;47228;46.762;23.598;2023-06-01T08:53:19;13.90;;;8.10;;
61358;SDS011;47228;46.762;23.598;2023-06-01T08:55:52;16.30;;;8.70;;
61358;SDS011;47228;46.762;23.598;2023-06-01T08:58:21;17.70;;;9.30;;
61358;SDS011;47228;46.762;23.598;2023-06-01T09:00:50;23.10;;;12.40;;
61358;SDS011;47228;46.762;23.598;2023-06-01T09:03:19;20.00;;;9.10;;
61358;SDS011;47228;46.762;23.598;2023-06-01T09:05:48;15.00;;;8.20;;
61358;SDS011;47228;46.762;23.598;2023-06-01T09:08:15;16.00;;;8.50;;
61358;SDS011;47228;46.762;23.598;2023-06-01T09:10:44;15.50;;;8.00;;
61358;SDS011;47228;46.762;23.598;2023-06-01T09:13:12;15.70;;;8.30;;
61358;SDS011;47228;46.762;23.598;2023-06-01T09:15:52;13.30;;;7.90;;
61358;SDS011;47228;46.762;23.598;2023-06-01T09:18:20;14.80;;;8.00;;
61358;SDS011;47228;46.762;23.598;2023-06-01T09:20:49;16.50;;;8.00;;
61358;SDS011;47228;46.762;23.598;2023-06-01T09:23:27;14.70;;;7.80;;
61358;SDS011;47228;46.762;23.598;2023-06-01T09:26:08;14.60;;;7.90;;
61358;SDS011;47228;46.762;23.598;2023-06-01T09:28:59;16.90;;;7.20;;
61358;SDS011;47228;46.762;23.598;2023-06-01T09:31:48;15.70;;;8.20;;
61358;SDS011;47228;46.762;23.598;2023-06-01T09:34:17;14.60;;;7.60;;
61358;SDS011;47228;46.762;23.598;2023-06-01T09:39:19;15.10;;;7.50;;
61358;SDS011;47228;46.762;23.598;2023-06-01T09:47:01;15.20;;;8.10;;
61358;SDS011;47228;46.762;23.598;2023-06-01T09:54:34;19.70;;;8.00;;
61358;SDS011;47228;46.762;23.598;2023-06-01T09:57:08;13.90;;;8.00;;
61358;SDS011;47228;46.762;23.598;2023-06-01T09:59:43;13.00;;;7.70;;
61358;SDS011;47228;46.762;23.598;2023-06-01T10:02:16;18.20;;;8.80;;
61358;SDS011;47228;46.762;23.598;2023-06-01T10:04:52;14.00;;;7.60;;
61358;SDS011;47228;46.762;23.598;2023-06-01T10:07:23;15.30;;;8.10;;
61358;SDS011;47228;46.762;23.598;2023-06-01T10:09:57;18.00;;;8.40;;
61358;SDS011;47228;46.762;23.598;2023-06-01T10:14:56;14.60;;;8.40;;
61358;SDS011;47228;46.762;23.598;2023-06-01T10:17:24;15.50;;;7.70;;
61358;SDS011;47228;46.762;23.598;2023-06-01T10:19:53;15.90;;;8.10;;
61358;SDS011;47228;46.762;23.598;2023-06-01T10:22:23;14.10;;;7.80;;
61358;SDS011;47228;46.762;23.598;2023-06-01T10:24:55;18.60;;;8.60;;
61358;SDS011;47228;46.762;23.598;2023-06-01T10:27:35;13.30;;;8.00;;
61358;SDS011;47228;46.762;23.598;2023-06-01T10:30:11;15.90;;;8.30;;
61358;SDS011;47228;46.762;23.598;2023-06-01T10:32:40;16.10;;;8.70;;
61358;SDS011;47228;46.762;23.598;2023-06-01T10:40:34;15.10;;;8.60;;
61358;SDS011;47228;46.762;23.598;2023-06-01T10:43:02;15.00;;;8.60;;
61358;SDS011;47228;46.762;23.598;2023-06-01T10:48:06;20.70;;;9.80;;
61358;SDS011;47228;46.762;23.598;2023-06-01T10:50:36;15.90;;;8.30;;
61358;SDS011;47228;46.762;23.598;2023-06-01T10:53:28;14.80;;;8.10;;
61358;SDS011;47228;46.762;23.598;2023-06-01T10:58:44;14.80;;;8.50;;
61358;SDS011;47228;46.762;23.598;2023-06-01T11:01:18;15.20;;;8.30;;
61358;SDS011;47228;46.762;23.598;2023-06-01T11:03:50;16.00;;;9.10;;
61358;SDS011;47228;46.762;23.598;2023-06-01T11:06:25;15.30;;;8.60;;
61358;SDS011;47228;46.762;23.598;2023-06-01T11:08:56;15.40;;;8.70;;
61358;SDS011;47228;46.762;23.598;2023-06-01T11:14:29;15.40;;;9.10;;
61358;SDS011;47228;46.762;23.598;2023-06-01T11:17:39;15.40;;;8.70;;
61358;SDS011;47228;46.762;23.598;2023-06-01T11:20:09;17.30;;;9.10;;
61358;SDS011;47228;46.762;23.598;2023-06-01T11:22:39;20.10;;;9.80;;
61358;SDS011;47228;46.762;23.598;2023-06-01T11:25:08;15.80;;;9.00;;
61358;SDS011;47228;46.762;23.598;2023-06-01T11:27:41;15.70;;;8.30;;
61358;SDS011;47228;46.762;23.598;2023-06-01T11:30:11;18.00;;;8.70;;
61358;SDS011;47228;46.762;23.598;2023-06-01T11:32:39;17.10;;;8.50;;
61358;SDS011;47228;46.762;23.598;2023-06-01T11:35:15;13.80;;;8.20;;
61358;SDS011;47228;46.762;23.598;2023-06-01T11:37:45;15.40;;;8.70;;
61358;SDS011;47228;46.762;23.598;2023-06-01T11:40:14;19.00;;;9.00;;
61358;SDS011;47228;46.762;23.598;2023-06-01T11:42:42;13.70;;;8.20;;
61358;SDS011;47228;46.762;23.598;2023-06-01T11:45:14;18.50;;;8.90;;
61358;SDS011;47228;46.762;23.598;2023-06-01T11:47:47;14.00;;;8.40;;
61358;SDS011;47228;46.762;23.598;2023-06-01T11:50:24;15.80;;;9.50;;
61358;SDS011;47228;46.762;23.598;2023-06-01T11:52:54;16.50;;;8.90;;
61358;SDS011;47228;46.762;23.598;2023-06-01T11:55:23;19.60;;;9.40;;
61358;SDS011;47228;46.762;23.598;2023-06-01T11:57:51;16.70;;;8.70;;
61358;SDS011;47228;46.762;23.598;2023-06-01T12:00:19;12.90;;;8.30;;
61358;SDS011;47228;46.762;23.598;2023-06-01T12:02:47;15.10;;;8.20;;
61358;SDS011;47228;46.762;23.598;2023-06-01T12:05:16;16.50;;;7.90;;
61358;SDS011;47228;46.762;23.598;2023-06-01T12:07:48;18.20;;;9.10;;
61358;SDS011;47228;46.762;23.598;2023-06-01T12:10:19;11.90;;;8.00;;
61358;SDS011;47228;46.762;23.598;2023-06-01T12:12:48;13.40;;;8.20;;
61358;SDS011;47228;46.762;23.598;2023-06-01T12:15:17;14.70;;;8.90;;
61358;SDS011;47228;46.762;23.598;2023-06-01T12:17:49;21.20;;;9.50;;
61358;SDS011;47228;46.762;23.598;2023-06-01T12:22:55;20.20;;;9.00;;
61358;SDS011;47228;46.762;23.598;2023-06-01T12:25:24;17.70;;;8.80;;
61358;SDS011;47228;46.762;23.598;2023-06-01T12:28:02;15.10;;;8.30;;
61358;SDS011;47228;46.762;23.598;2023-06-01T12:30:32;14.30;;;8.30;;
61358;SDS011;47228;46.762;23.598;2023-06-01T12:33:07;17.00;;;8.10;;
61358;SDS011;47228;46.762;23.598;2023-06-01T12:35:48;15.00;;;7.70;;
61358;SDS011;47228;46.762;23.598;2023-06-01T12:38:19;18.30;;;8.70;;
61358;SDS011;47228;46.762;23.598;2023-06-01T12:41:04;21.80;;;9.30;;
61358;SDS011;47228;46.762;23.598;2023-06-01T12:43:35;17.70;;;8.50;;
61358;SDS011;47228;46.762;23.598;2023-06-01T12:46:04;15.80;;;8.40;;
61358;SDS011;47228;46.762;23.598;2023-06-01T12:48:36;45.30;;;9.70;;
61358;SDS011;47228;46.762;23.598;2023-06-01T12:51:04;18.20;;;8.20;;
61358;SDS011;47228;46.762;23.598;2023-06-01T12:53:33;26.80;;;9.70;;
61358;SDS011;47228;46.762;23.598;2023-06-01T12:56:01;23.70;;;9.20;;
61358;SDS011;47228;46.762;23.598;2023-06-01T12:58:28;17.70;;;8.90;;
61358;SDS011;47228;46.762;23.598;2023-06-01T13:00:56;15.50;;;9.10;;
61358;SDS011;47228;46.762;23.598;2023-06-01T13:03:24;15.80;;;9.10;;
61358;SDS011;47228;46.762;23.598;2023-06-01T13:05:53;15.10;;;8.60;;
61358;SDS011;47228;46.762;23.598;2023-06-01T13:08:21;15.90;;;8.50;;
61358;SDS011;47228;46.762;23.598;2023-06-01T13:10:49;14.70;;;8.80;;
61358;SDS011;47228;46.762;23.598;2023-06-01T13:13:18;14.90;;;8.50;;
61358;SDS011;47228;46.762;23.598;2023-06-01T13:15:46;21.30;;;9.50;;
61358;SDS011;47228;46.762;23.598;2023-06-01T13:18:14;19.00;;;9.10;;
61358;SDS011;47228;46.762;23.598;2023-06-01T13:20:42;15.30;;;9.20;;
61358;SDS011;47228;46.762;23.598;2023-06-01T13:23:10;15.90;;;8.80;;
61358;SDS011;47228;46.762;23.598;2023-06-01T13:25:39;16.30;;;8.90;;
61358;SDS011;47228;46.762;23.598;2023-06-01T13:28:08;18.00;;;9.20;;
61358;SDS011;47228;46.762;23.598;2023-06-01T13:30:36;16.30;;;8.40;;
61358;SDS011;47228;46.762;23.598;2023-06-01T13:33:04;18.20;;;9.40;;
61358;SDS011;47228;46.762;23.598;2023-06-01T13:35:33;17.90;;;9.70;;
61358;SDS011;47228;46.762;23.598;2023-06-01T13:38:02;17.40;;;8.70;;
61358;SDS011;47228;46.762;23.598;2023-06-01T13:40:30;16.00;;;8.90;;
61358;SDS011;47228;46.762;23.598;2023-06-01T13:43:01;15.90;;;8.60;;
61358;SDS011;47228;46.762;23.598;2023-06-01T13:45:29;16.30;;;9.10;;
61358;SDS011;47228;46.762;23.598;2023-06-01T13:47:57;21.30;;;9.30;;
61358;SDS011;47228;46.762;23.598;2023-06-01T13:50:26;14.80;;;8.50;;
61358;SDS011;47228;46.762;23.598;2023-06-01T13:52:54;17.10;;;9.60;;
61358;SDS011;47228;46.762;23.598;2023-06-01T13:55:22;14.30;;;8.40;;
61358;SDS011;47228;46.762;23.598;2023-06-01T13:57:51;17.60;;;9.00;;
61358;SDS011;47228;46.762;23.598;2023-06-01T14:00:19;18.50;;;8.80;;
61358;SDS011;47228;46.762;23.598;2023-06-01T14:02:49;17.20;;;8.20;;
61358;SDS011;47228;46.762;23.598;2023-06-01T14:05:17;14.80;;;7.80;;
61358;SDS011;47228;46.762;23.598;2023-06-01T14:08:02;16.10;;;8.00;;
61358;SDS011;47228;46.762;23.598;2023-06-01T14:10:32;16.80;;;8.10;;
61358;SDS011;47228;46.762;23.598;2023-06-01T14:13:01;15.20;;;7.70;;
61358;SDS011;47228;46.762;23.598;2023-06-01T14:15:30;11.80;;;7.00;;
61358;SDS011;47228;46.762;23.598;2023-06-01T14:17:58;14.70;;;7.40;;
61358;SDS011;47228;46.762;23.598;2023-06-01T14:20:26;14.80;;;7.20;;
61358;SDS011;47228;46.762;23.598;2023-06-01T14:22:55;17.20;;;8.60;;
61358;SDS011;47228;46.762;23.598;2023-06-01T14:25:23;19.00;;;8.80;;
61358;SDS011;47228;46.762;23.598;2023-06-01T14:27:51;18.80;;;9.10;;
61358;SDS011;47228;46.762;23.598;2023-06-01T14:30:19;31.50;;;12.40;;
61358;SDS011;47228;46.762;23.598;2023-06-01T14:32:47;27.20;;;10.30;;
61358;SDS011;47228;46.762;23.598;2023-06-01T14:35:15;33.60;;;11.60;;
61358;SDS011;47228;46.762;23.598;2023-06-01T14:37:46;23.70;;;10.20;;
61358;SDS011;47228;46.762;23.598;2023-06-01T14:40:17;22.30;;;10.00;;
61358;SDS011;47228;46.762;23.598;2023-06-01T14:42:45;24.80;;;11.10;;
61358;SDS011;47228;46.762;23.598;2023-06-01T14:45:13;31.80;;;14.30;;
61358;SDS011;47228;46.762;23.598;2023-06-01T14:47:41;29.20;;;16.30;;
61358;SDS011;47228;46.762;23.598;2023-06-01T14:50:10;39.80;;;22.10;;
61358;SDS011;47228;46.762;23.598;2023-06-01T14:52:39;53.00;;;28.10;;
61358;SDS011;47228;46.762;23.598;2023-06-01T14:55:07;52.70;;;29.20;;
61358;SDS011;47228;46.762;23.598;2023-06-01T14:57:35;52.10;;;31.90;;
61358;SDS011;47228;46.762;23.598;2023-06-01T15:00:03;49.90;;;29.70;;
61358;SDS011;47228;46.762;23.598;2023-06-01T15:02:32;57.70;;;31.70;;
61358;SDS011;47228;46.762;23.598;2023-06-01T15:05:00;63.80;;;33.90;;
61358;SDS011;47228;46.762;23.598;2023-06-01T15:07:28;56.30;;;33.70;;
61358;SDS011;47228;46.762;23.598;2023-06-01T15:09:56;60.30;;;34.90;;
61358;SDS011;47228;46.762;23.598;2023-06-01T15:12:25;59.80;;;35.70;;
61358;SDS011;47228;46.762;23.598;2023-06-01T15:14:53;60.80;;;37.50;;